PWSweather.com
Personal Weather Stations
Station Observations
KNCCHINA3
Red Tractor Trail, China Grove, NC 28023

Red Tractor TrailChina Grove, NC 28023

Lat: 35.59751, Lon: -80.60201

Elevation: 800

Station Type: Oregon Scientific WMR 968

http://www.joesweathergarage.com

High Low Average
Temperature 39.6°F4.2°C 32.8°F0.4°C 35.3°F1.8°C
Dew Point 39.0°F3.9°C 27.2°F-2.7°C 32.9°F0.5°C
Winds 23.4 mph 37.7 kmh Calm Calm 7.0 mph SE11.3 kmh SE
Wind Gusts 33.2 mph53.4 kmh -- 13.0 mph20.9 kmh
Humidity 98% 72% 92%
Pressure 29.91 in1012.9 mb 29.74 in1007.1 mb -
Precipitation 0.78 in19.8 mm - -
Hour Temp Dew Point Humidity Winds Wind Gusts Pressure Precip Precip Rate Daily Precip Total
12:04 AM 39.3°F4.1°C 38.7°F3.7°C 98% 7.0 mph ENE11.3 kmh ENE 12.0 mph19.3 kmh 29.88 in1011.9 mb 0.00 in0.0 mm 0.00 in0.0 mm 0.00 in0.0 mm
12:09 AM 39.3°F4.1°C 38.7°F3.7°C 98% 7.6 mph ENE12.2 kmh ENE 12.0 mph19.3 kmh 29.88 in1011.9 mb 0.00 in0.0 mm 0.00 in0.0 mm 0.00 in0.0 mm
12:14 AM 39.5°F4.2°C 38.9°F3.8°C 98% 8.2 mph ENE13.2 kmh ENE 14.4 mph23.2 kmh 29.88 in1011.9 mb 0.00 in0.0 mm 0.00 in0.0 mm 0.00 in0.0 mm
12:19 AM 39.5°F4.2°C 38.9°F3.8°C 98% 5.5 mph ENE8.9 kmh ENE 14.4 mph23.2 kmh 29.88 in1011.9 mb 0.00 in0.0 mm 0.00 in0.0 mm 0.00 in0.0 mm
12:24 AM 39.5°F4.2°C 38.9°F3.8°C 98% 7.4 mph ENE11.9 kmh ENE 15.2 mph24.5 kmh 29.88 in1011.9 mb 0.00 in0.0 mm 0.00 in0.0 mm 0.00 in0.0 mm
12:31 AM 39.5°F4.2°C 38.9°F3.8°C 98% 6.6 mph E10.6 kmh E 11.2 mph18.0 kmh 29.88 in1011.9 mb 0.00 in0.0 mm 0.00 in0.0 mm 0.00 in0.0 mm
12:36 AM 39.5°F4.2°C 38.9°F3.8°C 98% 5.2 mph E8.4 kmh E 8.0 mph12.9 kmh 29.88 in1011.9 mb 0.00 in0.0 mm 0.00 in0.0 mm 0.00 in0.0 mm
12:41 AM 39.5°F4.2°C 38.9°F3.8°C 98% 7.7 mph E12.4 kmh E 11.6 mph18.7 kmh 29.85 in1010.8 mb 0.00 in0.0 mm 0.00 in0.0 mm 0.00 in0.0 mm
12:46 AM 39.5°F4.2°C 38.9°F3.8°C 98% 6.0 mph E9.7 kmh E 11.6 mph18.7 kmh 29.85 in1010.8 mb 0.00 in0.0 mm 0.00 in0.0 mm 0.00 in0.0 mm
12:52 AM 39.6°F4.2°C 39.0°F3.9°C 98% 6.5 mph ENE10.5 kmh ENE 13.8 mph22.2 kmh 29.85 in1010.8 mb 0.04 in1.0 mm 0.40 in10.2 mm 0.04 in1.0 mm
12:57 AM 39.6°F4.2°C 39.0°F3.9°C 98% 7.9 mph ENE12.7 kmh ENE 16.2 mph26.1 kmh 29.85 in1010.8 mb 0.00 in0.0 mm 0.00 in0.0 mm 0.04 in1.0 mm
01:02 AM 39.6°F4.2°C 39.0°F3.9°C 98% 5.8 mph ENE9.3 kmh ENE 16.2 mph26.1 kmh 29.85 in1010.8 mb 0.00 in0.0 mm 0.00 in0.0 mm 0.04 in1.0 mm
01:07 AM 39.6°F4.2°C 39.0°F3.9°C 98% 4.0 mph ENE6.4 kmh ENE 8.6 mph13.8 kmh 29.85 in1010.8 mb 0.00 in0.0 mm 0.00 in0.0 mm 0.04 in1.0 mm
01:12 AM 39.6°F4.2°C 39.0°F3.9°C 98% 5.4 mph E8.7 kmh E 8.6 mph13.8 kmh 29.83 in1010.2 mb 0.00 in0.0 mm 0.00 in0.0 mm 0.04 in1.0 mm
01:17 AM 39.6°F4.2°C 39.0°F3.9°C 98% 7.2 mph ENE11.6 kmh ENE 8.6 mph13.8 kmh 29.83 in1010.2 mb 0.00 in0.0 mm 0.00 in0.0 mm 0.04 in1.0 mm
01:22 AM 39.6°F4.2°C 39.0°F3.9°C 98% 4.8 mph ENE7.7 kmh ENE 8.6 mph13.8 kmh 29.83 in1010.2 mb 0.00 in0.0 mm 0.00 in0.0 mm 0.04 in1.0 mm
01:27 AM 39.5°F4.2°C 38.9°F3.8°C 98% 6.3 mph E10.1 kmh E 13.0 mph20.9 kmh 29.85 in1010.8 mb 0.00 in0.0 mm 0.00 in0.0 mm 0.04 in1.0 mm
01:32 AM 39.5°F4.2°C 38.9°F3.8°C 98% 7.8 mph E12.6 kmh E 13.0 mph20.9 kmh 29.85 in1010.8 mb 0.04 in1.0 mm 0.48 in12.2 mm 0.08 in2.0 mm
01:37 AM 39.5°F4.2°C 38.9°F3.8°C 98% 5.3 mph E8.5 kmh E 12.0 mph19.3 kmh 29.85 in1010.8 mb 0.04 in1.0 mm 0.00 in0.0 mm 0.08 in2.0 mm
01:42 AM 39.5°F4.2°C 38.9°F3.8°C 98% 6.1 mph ENE9.8 kmh ENE 9.8 mph15.8 kmh 29.85 in1010.8 mb 0.04 in1.0 mm 0.00 in0.0 mm 0.08 in2.0 mm
01:47 AM 39.5°F4.2°C 38.9°F3.8°C 98% 4.6 mph E7.4 kmh E 9.8 mph15.8 kmh 29.85 in1010.8 mb 0.04 in1.0 mm 0.00 in0.0 mm 0.08 in2.0 mm
01:53 AM 39.3°F4.1°C 38.7°F3.7°C 98% 3.6 mph SE5.8 kmh SE 9.8 mph15.8 kmh 29.85 in1010.8 mb 0.04 in1.0 mm 0.00 in0.0 mm 0.08 in2.0 mm
01:58 AM 39.3°F4.1°C 38.7°F3.7°C 98% 7.0 mph ENE11.3 kmh ENE 9.8 mph15.8 kmh 29.83 in1010.2 mb 0.00 in0.0 mm 0.00 in0.0 mm 0.08 in2.0 mm
02:03 AM 39.3°F4.1°C 38.7°F3.7°C 98% 4.6 mph E7.4 kmh E 14.4 mph23.2 kmh 29.83 in1010.2 mb 0.04 in1.0 mm 0.04 in1.0 mm 0.12 in3.0 mm
02:08 AM 39.3°F4.1°C 38.7°F3.7°C 98% 3.9 mph E6.3 kmh E 14.4 mph23.2 kmh 29.83 in1010.2 mb 0.04 in1.0 mm 0.00 in0.0 mm 0.12 in3.0 mm
02:14 AM 39.3°F4.1°C 38.7°F3.7°C 98% 5.9 mph E9.5 kmh E 8.6 mph13.8 kmh 29.85 in1010.8 mb 0.04 in1.0 mm 0.00 in0.0 mm 0.12 in3.0 mm
09:17 AM 33.9°F1.1°C 33.3°F0.7°C 98% 8.0 mph 12.9 kmh 12.6 mph20.3 kmh 29.83 in1010.2 mb 0.00 in0.0 mm 0.00 in0.0 mm 0.49 in12.4 mm
09:24 AM 33.7°F0.9°C 33.1°F0.6°C 98% 6.4 mph NNE10.3 kmh NNE 13.0 mph20.9 kmh 29.83 in1010.2 mb 0.00 in0.0 mm 0.00 in0.0 mm 0.49 in12.4 mm
09:29 AM 33.5°F0.8°C 32.9°F0.5°C 98% 11.2 mph NNE18.0 kmh NNE 15.6 mph25.1 kmh 29.83 in1010.2 mb 0.00 in0.0 mm 0.00 in0.0 mm 0.49 in12.4 mm
09:34 AM 33.3°F0.7°C 32.7°F0.4°C 98% 8.4 mph NE13.5 kmh NE 15.6 mph25.1 kmh 29.83 in1010.2 mb 0.00 in0.0 mm 0.00 in0.0 mm 0.49 in12.4 mm
09:39 AM 33.2°F0.7°C 32.6°F0.3°C 98% 12.4 mph NNE20.0 kmh NNE 16.2 mph26.1 kmh 29.83 in1010.2 mb 0.00 in0.0 mm 0.00 in0.0 mm 0.49 in12.4 mm
09:44 AM 33.0°F0.6°C 32.4°F0.2°C 98% 9.2 mph NNE14.8 kmh NNE 16.2 mph26.1 kmh 29.83 in1010.2 mb 0.00 in0.0 mm 0.00 in0.0 mm 0.49 in12.4 mm
09:49 AM 33.0°F0.6°C 32.4°F0.2°C 98% 11.2 mph NNE18.0 kmh NNE 21.4 mph34.4 kmh 29.83 in1010.2 mb 0.00 in0.0 mm 0.00 in0.0 mm 0.49 in12.4 mm
09:54 AM 33.0°F0.6°C 32.4°F0.2°C 98% 9.9 mph NNE15.9 kmh NNE 21.4 mph34.4 kmh 29.80 in1009.1 mb 0.00 in0.0 mm 0.00 in0.0 mm 0.49 in12.4 mm
09:59 AM 33.0°F0.6°C 32.4°F0.2°C 98% 10.9 mph N17.5 kmh N 17.4 mph28.0 kmh 29.80 in1009.1 mb 0.00 in0.0 mm 0.00 in0.0 mm 0.49 in12.4 mm
10:04 AM 32.8°F0.4°C 32.2°F0.1°C 98% 8.9 mph NNE14.3 kmh NNE 17.0 mph27.4 kmh 29.80 in1009.1 mb 0.00 in0.0 mm 0.00 in0.0 mm 0.49 in12.4 mm
10:09 AM 32.8°F0.4°C 32.2°F0.1°C 98% 11.1 mph NNE17.9 kmh NNE 17.0 mph27.4 kmh 29.80 in1009.1 mb 0.00 in0.0 mm 0.00 in0.0 mm 0.49 in12.4 mm
10:14 AM 32.8°F0.4°C 32.2°F0.1°C 98% 7.8 mph NE12.6 kmh NE 16.2 mph26.1 kmh 29.80 in1009.1 mb 0.00 in0.0 mm 0.00 in0.0 mm 0.49 in12.4 mm
10:19 AM 32.8°F0.4°C 32.2°F0.1°C 98% 6.2 mph NE10.0 kmh NE 16.2 mph26.1 kmh 29.80 in1009.1 mb 0.00 in0.0 mm 0.00 in0.0 mm 0.49 in12.4 mm
10:24 AM 32.8°F0.4°C 32.2°F0.1°C 98% 6.4 mph NNE10.3 kmh NNE 12.0 mph19.3 kmh 29.80 in1009.1 mb 0.00 in0.0 mm 0.00 in0.0 mm 0.49 in12.4 mm
10:29 AM 32.8°F0.4°C 32.2°F0.1°C 98% 5.9 mph NNE9.5 kmh NNE 8.6 mph13.8 kmh 29.80 in1009.1 mb 0.00 in0.0 mm 0.00 in0.0 mm 0.49 in12.4 mm
10:34 AM 33.0°F0.6°C 32.4°F0.2°C 98% 9.9 mph NE15.9 kmh NE 17.4 mph28.0 kmh 29.80 in1009.1 mb 0.00 in0.0 mm 0.00 in0.0 mm 0.49 in12.4 mm
10:39 AM 33.0°F0.6°C 32.4°F0.2°C 98% 9.8 mph NE15.8 kmh NE 17.4 mph28.0 kmh 29.80 in1009.1 mb 0.00 in0.0 mm 0.00 in0.0 mm 0.49 in12.4 mm
10:44 AM 33.0°F0.6°C 32.4°F0.2°C 98% 6.4 mph ENE10.3 kmh ENE 15.2 mph24.5 kmh 29.80 in1009.1 mb 0.00 in0.0 mm 0.00 in0.0 mm 0.49 in12.4 mm
10:49 AM 33.0°F0.6°C 32.4°F0.2°C 98% 8.3 mph NE13.4 kmh NE 17.4 mph28.0 kmh 29.80 in1009.1 mb 0.00 in0.0 mm 0.00 in0.0 mm 0.49 in12.4 mm
10:54 AM 33.0°F0.6°C 32.4°F0.2°C 98% 7.8 mph NE12.6 kmh NE 17.4 mph28.0 kmh 29.80 in1009.1 mb 0.00 in0.0 mm 0.00 in0.0 mm 0.49 in12.4 mm
11:00 AM 33.0°F0.6°C 32.4°F0.2°C 98% 7.3 mph NE11.7 kmh NE 15.2 mph24.5 kmh 29.80 in1009.1 mb 0.00 in0.0 mm 0.00 in0.0 mm 0.49 in12.4 mm
11:05 AM 33.0°F0.6°C 32.4°F0.2°C 98% 9.5 mph NE15.3 kmh NE 14.8 mph23.8 kmh 29.80 in1009.1 mb 0.00 in0.0 mm 0.00 in0.0 mm 0.49 in12.4 mm
11:10 AM 33.2°F0.7°C 32.6°F0.3°C 98% 7.0 mph NE11.3 kmh NE 12.6 mph20.3 kmh 29.80 in1009.1 mb 0.00 in0.0 mm 0.00 in0.0 mm 0.49 in12.4 mm
11:15 AM 33.2°F0.7°C 32.6°F0.3°C 98% 8.9 mph NE14.3 kmh NE 12.6 mph20.3 kmh 29.80 in1009.1 mb 0.00 in0.0 mm 0.00 in0.0 mm 0.49 in12.4 mm
11:20 AM 33.2°F0.7°C 32.6°F0.3°C 98% 7.4 mph NE11.9 kmh NE 12.6 mph20.3 kmh 29.80 in1009.1 mb 0.00 in0.0 mm 0.00 in0.0 mm 0.49 in12.4 mm
11:25 AM 33.5°F0.8°C 32.9°F0.5°C 98% 8.9 mph NE14.3 kmh NE 13.0 mph20.9 kmh 29.80 in1009.1 mb 0.00 in0.0 mm 0.00 in0.0 mm 0.49 in12.4 mm
11:31 AM 33.9°F1.1°C 33.3°F0.7°C 98% 9.3 mph NE15.0 kmh NE 13.0 mph20.9 kmh 29.80 in1009.1 mb 0.00 in0.0 mm 0.00 in0.0 mm 0.49 in12.4 mm
11:36 AM 34.2°F1.2°C 33.6°F0.9°C 98% 7.6 mph NNE12.2 kmh NNE 16.2 mph26.1 kmh 29.80 in1009.1 mb 0.00 in0.0 mm 0.00 in0.0 mm 0.49 in12.4 mm
11:41 AM 34.2°F1.2°C 33.6°F0.9°C 98% 10.3 mph E16.6 kmh E 19.6 mph31.5 kmh 29.80 in1009.1 mb 0.00 in0.0 mm 0.00 in0.0 mm 0.49 in12.4 mm
11:46 AM 34.4°F1.3°C 33.8°F1.0°C 98% 8.6 mph E13.8 kmh E 19.6 mph31.5 kmh 29.80 in1009.1 mb 0.00 in0.0 mm 0.00 in0.0 mm 0.49 in12.4 mm
11:53 AM 34.4°F1.3°C 33.8°F1.0°C 98% 9.4 mph ENE15.1 kmh ENE 21.4 mph34.4 kmh 29.80 in1009.1 mb 0.00 in0.0 mm 0.00 in0.0 mm 0.49 in12.4 mm
11:58 AM 34.1°F1.2°C 33.5°F0.8°C 98% 10.6 mph ENE17.1 kmh ENE 19.6 mph31.5 kmh 29.77 in1008.1 mb 0.00 in0.0 mm 0.00 in0.0 mm 0.54 in13.7 mm
12:03 PM 34.2°F1.2°C 33.6°F0.9°C 98% 6.0 mph ENE9.7 kmh ENE 20.2 mph32.5 kmh 29.77 in1008.1 mb 0.00 in0.0 mm 0.00 in0.0 mm 0.54 in13.7 mm
12:08 PM 33.9°F1.1°C 33.3°F0.7°C 98% 9.6 mph NE15.4 kmh NE 20.2 mph32.5 kmh 29.77 in1008.1 mb 0.00 in0.0 mm 0.00 in0.0 mm 0.54 in13.7 mm
12:14 PM 34.1°F1.2°C 33.5°F0.8°C 98% 9.1 mph ENE14.6 kmh ENE 15.2 mph24.5 kmh 29.77 in1008.1 mb 0.00 in0.0 mm 0.00 in0.0 mm 0.54 in13.7 mm
12:19 PM 34.1°F1.2°C 33.5°F0.8°C 98% 7.6 mph NE12.2 kmh NE 15.2 mph24.5 kmh 29.77 in1008.1 mb 0.00 in0.0 mm 0.00 in0.0 mm 0.54 in13.7 mm
12:26 PM 33.9°F1.1°C 33.3°F0.7°C 98% 12.8 mph NE20.6 kmh NE 24.6 mph39.6 kmh 29.77 in1008.1 mb 0.00 in0.0 mm 0.00 in0.0 mm 0.54 in13.7 mm
12:31 PM 33.7°F0.9°C 33.1°F0.6°C 98% 17.8 mph NE28.6 kmh NE 29.6 mph47.6 kmh 29.77 in1008.1 mb 0.00 in0.0 mm 0.00 in0.0 mm 0.54 in13.7 mm
12:38 PM 34.1°F1.2°C 33.5°F0.8°C 98% 10.3 mph NE16.6 kmh NE 26.4 mph42.5 kmh 29.77 in1008.1 mb 0.00 in0.0 mm 0.00 in0.0 mm 0.54 in13.7 mm
12:43 PM 33.9°F1.1°C 33.3°F0.7°C 98% 14.4 mph NE23.2 kmh NE 24.2 mph38.9 kmh 29.77 in1008.1 mb 0.04 in1.0 mm 0.48 in12.2 mm 0.57 in14.5 mm
12:48 PM 34.2°F1.2°C 33.6°F0.9°C 98% 13.4 mph NE21.6 kmh NE 24.2 mph38.9 kmh 29.77 in1008.1 mb 0.04 in1.0 mm 0.00 in0.0 mm 0.57 in14.5 mm
12:53 PM 34.6°F1.4°C 34.0°F1.1°C 98% 8.4 mph NE13.5 kmh NE 20.2 mph32.5 kmh 29.77 in1008.1 mb 0.04 in1.0 mm 0.00 in0.0 mm 0.57 in14.5 mm
12:58 PM 34.2°F1.2°C 33.6°F0.9°C 98% 7.0 mph NNW11.3 kmh NNW 20.2 mph32.5 kmh 29.77 in1008.1 mb 0.00 in0.0 mm 0.00 in0.0 mm 0.57 in14.5 mm
01:03 PM 33.9°F1.1°C 33.3°F0.7°C 98% 5.4 mph NW8.7 kmh NW 19.2 mph30.9 kmh 29.77 in1008.1 mb 0.00 in0.0 mm 0.00 in0.0 mm 0.57 in14.5 mm
01:08 PM 33.7°F0.9°C 33.1°F0.6°C 98% 10.2 mph N16.4 kmh N 17.0 mph27.4 kmh 29.77 in1008.1 mb 0.00 in0.0 mm 0.00 in0.0 mm 0.57 in14.5 mm
01:13 PM 33.7°F0.9°C 33.1°F0.6°C 98% 6.7 mph N10.8 kmh N 17.0 mph27.4 kmh 29.77 in1008.1 mb 0.00 in0.0 mm 0.00 in0.0 mm 0.57 in14.5 mm
01:18 PM 33.5°F0.8°C 32.9°F0.5°C 98% 9.4 mph N15.1 kmh N 15.6 mph25.1 kmh 29.77 in1008.1 mb 0.00 in0.0 mm 0.00 in0.0 mm 0.57 in14.5 mm
01:23 PM 33.5°F0.8°C 32.9°F0.5°C 98% 5.9 mph NW9.5 kmh NW 15.6 mph25.1 kmh 29.77 in1008.1 mb 0.00 in0.0 mm 0.00 in0.0 mm 0.57 in14.5 mm
01:29 PM 33.3°F0.7°C 32.7°F0.4°C 98% 7.2 mph NW11.6 kmh NW 12.0 mph19.3 kmh 29.80 in1009.1 mb 0.00 in0.0 mm 0.00 in0.0 mm 0.57 in14.5 mm
01:34 PM 33.3°F0.7°C 32.7°F0.4°C 98% 7.2 mph N11.6 kmh N 12.0 mph19.3 kmh 29.80 in1009.1 mb 0.00 in0.0 mm 0.00 in0.0 mm 0.57 in14.5 mm
01:39 PM 33.2°F0.7°C 32.6°F0.3°C 98% 7.6 mph N12.2 kmh N 14.8 mph23.8 kmh 29.80 in1009.1 mb 0.00 in0.0 mm 0.00 in0.0 mm 0.57 in14.5 mm
01:44 PM 33.3°F0.7°C 32.7°F0.4°C 98% 4.6 mph NNW7.4 kmh NNW 14.8 mph23.8 kmh 29.83 in1010.2 mb 0.00 in0.0 mm 0.00 in0.0 mm 0.57 in14.5 mm
01:49 PM 33.2°F0.7°C 32.6°F0.3°C 98% 10.9 mph N17.5 kmh N 16.2 mph26.1 kmh 29.83 in1010.2 mb 0.00 in0.0 mm 0.00 in0.0 mm 0.57 in14.5 mm
01:54 PM 33.3°F0.7°C 32.7°F0.4°C 98% 16.8 mph N27.0 kmh N 22.4 mph36.0 kmh 29.80 in1009.1 mb 0.00 in0.0 mm 0.00 in0.0 mm 0.57 in14.5 mm
02:00 PM 33.3°F0.7°C 32.7°F0.4°C 98% 23.4 mph NNE37.7 kmh NNE 33.2 mph53.4 kmh 29.80 in1009.1 mb 0.00 in0.0 mm 0.00 in0.0 mm 0.57 in14.5 mm
02:05 PM 33.5°F0.8°C 32.9°F0.5°C 98% 15.5 mph N24.9 kmh N 33.2 mph53.4 kmh 29.80 in1009.1 mb 0.00 in0.0 mm 0.00 in0.0 mm 0.57 in14.5 mm
02:10 PM 33.5°F0.8°C 32.9°F0.5°C 98% 12.7 mph NNE20.4 kmh NNE 29.6 mph47.6 kmh 29.77 in1008.1 mb 0.00 in0.0 mm 0.00 in0.0 mm 0.57 in14.5 mm
02:15 PM 33.5°F0.8°C 32.9°F0.5°C 98% 9.9 mph NNE15.9 kmh NNE 19.2 mph30.9 kmh 29.77 in1008.1 mb 0.00 in0.0 mm 0.00 in0.0 mm 0.57 in14.5 mm
02:20 PM 33.7°F0.9°C 33.1°F0.6°C 98% 11.8 mph NE19.0 kmh NE 29.0 mph46.7 kmh 29.77 in1008.1 mb 0.00 in0.0 mm 0.00 in0.0 mm 0.57 in14.5 mm
02:25 PM 33.7°F0.9°C 33.1°F0.6°C 98% 11.5 mph N18.5 kmh N 29.0 mph46.7 kmh 29.77 in1008.1 mb 0.00 in0.0 mm 0.00 in0.0 mm 0.57 in14.5 mm
02:30 PM 33.5°F0.8°C 32.9°F0.5°C 98% 14.3 mph NNE23.0 kmh NNE 18.4 mph29.6 kmh 29.77 in1008.1 mb 0.00 in0.0 mm 0.00 in0.0 mm 0.57 in14.5 mm
02:35 PM 33.5°F0.8°C 32.9°F0.5°C 98% 11.1 mph NE17.9 kmh NE 18.4 mph29.6 kmh 29.77 in1008.1 mb 0.00 in0.0 mm 0.00 in0.0 mm 0.57 in14.5 mm
02:40 PM 33.7°F0.9°C 33.1°F0.6°C 98% 6.9 mph NNE11.1 kmh NNE 17.4 mph28.0 kmh 29.77 in1008.1 mb 0.00 in0.0 mm 0.00 in0.0 mm 0.57 in14.5 mm
02:45 PM 33.7°F0.9°C 33.1°F0.6°C 98% 11.8 mph N19.0 kmh N 17.4 mph28.0 kmh 29.77 in1008.1 mb 0.04 in1.0 mm 0.48 in12.2 mm 0.62 in15.7 mm
02:51 PM 33.7°F0.9°C 33.1°F0.6°C 98% 12.9 mph NNE20.8 kmh NNE 22.0 mph35.4 kmh 29.77 in1008.1 mb 0.04 in1.0 mm 0.00 in0.0 mm 0.62 in15.7 mm
02:56 PM 33.7°F0.9°C 33.1°F0.6°C 98% 12.3 mph NNE19.8 kmh NNE 22.0 mph35.4 kmh 29.77 in1008.1 mb 0.00 in0.0 mm 0.00 in0.0 mm 0.62 in15.7 mm
03:01 PM 33.7°F0.9°C 33.1°F0.6°C 98% 18.2 mph NNE29.3 kmh NNE 24.2 mph38.9 kmh 29.77 in1008.1 mb 0.00 in0.0 mm 0.00 in0.0 mm 0.62 in15.7 mm
03:06 PM 34.1°F1.2°C 33.5°F0.8°C 98% 11.7 mph NE18.8 kmh NE 24.2 mph38.9 kmh 29.77 in1008.1 mb 0.00 in0.0 mm 0.00 in0.0 mm 0.62 in15.7 mm
03:11 PM 34.4°F1.3°C 33.8°F1.0°C 98% 7.7 mph NNE12.4 kmh NNE 19.2 mph30.9 kmh 29.77 in1008.1 mb 0.00 in0.0 mm 0.00 in0.0 mm 0.62 in15.7 mm
03:16 PM 34.4°F1.3°C 33.8°F1.0°C 98% 8.2 mph NE13.2 kmh NE 19.2 mph30.9 kmh 29.77 in1008.1 mb 0.00 in0.0 mm 0.00 in0.0 mm 0.62 in15.7 mm
03:21 PM 34.4°F1.3°C 33.8°F1.0°C 98% 13.6 mph N21.9 kmh N 19.6 mph31.5 kmh 29.77 in1008.1 mb 0.00 in0.0 mm 0.00 in0.0 mm 0.62 in15.7 mm
03:26 PM 34.8°F1.6°C 34.2°F1.2°C 98% 9.8 mph N15.8 kmh N 19.6 mph31.5 kmh 29.77 in1008.1 mb 0.00 in0.0 mm 0.00 in0.0 mm 0.62 in15.7 mm
03:31 PM 35.0°F1.7°C 34.4°F1.3°C 98% 14.9 mph NNE24.0 kmh NNE 20.6 mph33.2 kmh 29.77 in1008.1 mb 0.00 in0.0 mm 0.00 in0.0 mm 0.62 in15.7 mm
03:36 PM 35.0°F1.7°C 34.4°F1.3°C 98% 10.9 mph NNE17.5 kmh NNE 26.0 mph41.8 kmh 29.77 in1008.1 mb 0.04 in1.0 mm 0.48 in12.2 mm 0.66 in16.8 mm
03:41 PM 35.1°F1.7°C 34.3°F1.3°C 97% 11.9 mph NNE19.2 kmh NNE 26.0 mph41.8 kmh 29.77 in1008.1 mb 0.04 in1.0 mm 0.00 in0.0 mm 0.66 in16.8 mm
03:46 PM 35.5°F1.9°C 34.6°F1.4°C 97% 8.7 mph NE14.0 kmh NE 20.2 mph32.5 kmh 29.77 in1008.1 mb 0.04 in1.0 mm 0.00 in0.0 mm 0.66 in16.8 mm
03:52 PM 35.3°F1.8°C 34.4°F1.3°C 97% 10.9 mph NNE17.5 kmh NNE 15.2 mph24.5 kmh 29.77 in1008.1 mb 0.04 in1.0 mm 0.00 in0.0 mm 0.66 in16.8 mm
03:57 PM 35.3°F1.8°C 33.9°F1.1°C 95% 11.7 mph NE18.8 kmh NE 21.0 mph33.8 kmh 29.77 in1008.1 mb 0.00 in0.0 mm 0.00 in0.0 mm 0.66 in16.8 mm
04:03 PM 35.3°F1.8°C 33.9°F1.1°C 95% 12.0 mph NNE19.3 kmh NNE 21.0 mph33.8 kmh 29.77 in1008.1 mb 0.00 in0.0 mm 0.00 in0.0 mm 0.66 in16.8 mm
04:08 PM 35.3°F1.8°C 33.9°F1.1°C 95% 10.6 mph NNE17.1 kmh NNE 21.0 mph33.8 kmh 29.77 in1008.1 mb 0.00 in0.0 mm 0.00 in0.0 mm 0.66 in16.8 mm
04:13 PM 35.5°F1.9°C 33.8°F1.0°C 94% 13.8 mph NE22.2 kmh NE 19.2 mph30.9 kmh 29.74 in1007.1 mb 0.00 in0.0 mm 0.00 in0.0 mm 0.66 in16.8 mm
04:18 PM 35.7°F2.1°C 34.0°F1.1°C 94% 7.5 mph NE12.1 kmh NE 18.8 mph30.3 kmh 29.74 in1007.1 mb 0.00 in0.0 mm 0.00 in0.0 mm 0.66 in16.8 mm
04:23 PM 35.7°F2.1°C 34.0°F1.1°C 94% 10.3 mph NNE16.6 kmh NNE 15.6 mph25.1 kmh 29.74 in1007.1 mb 0.00 in0.0 mm 0.00 in0.0 mm 0.66 in16.8 mm
04:28 PM 35.7°F2.1°C 34.0°F1.1°C 94% 10.8 mph N17.4 kmh N 15.2 mph24.5 kmh 29.77 in1008.1 mb 0.00 in0.0 mm 0.00 in0.0 mm 0.66 in16.8 mm
04:33 PM 35.9°F2.2°C 34.0°F1.1°C 93% 15.0 mph NNE24.1 kmh NNE 19.2 mph30.9 kmh 29.77 in1008.1 mb 0.04 in1.0 mm 0.48 in12.2 mm 0.70 in17.8 mm
04:38 PM 35.9°F2.2°C 34.0°F1.1°C 93% 11.1 mph NNE17.9 kmh NNE 19.2 mph30.9 kmh 29.77 in1008.1 mb 0.04 in1.0 mm 0.00 in0.0 mm 0.70 in17.8 mm
04:43 PM 35.9°F2.2°C 34.2°F1.2°C 94% 8.5 mph N13.7 kmh N 17.0 mph27.4 kmh 29.77 in1008.1 mb 0.04 in1.0 mm 0.00 in0.0 mm 0.70 in17.8 mm
04:48 PM 35.7°F2.1°C 33.8°F1.0°C 93% 11.0 mph NNE17.7 kmh NNE 15.6 mph25.1 kmh 29.77 in1008.1 mb 0.04 in1.0 mm 0.00 in0.0 mm 0.70 in17.8 mm
04:54 PM 35.7°F2.1°C 34.0°F1.1°C 94% 10.2 mph NNE16.4 kmh NNE 15.6 mph25.1 kmh 29.77 in1008.1 mb 0.04 in1.0 mm 0.00 in0.0 mm 0.70 in17.8 mm
04:59 PM 35.9°F2.2°C 34.5°F1.4°C 95% 6.3 mph NNE10.1 kmh NNE 15.2 mph24.5 kmh 29.77 in1008.1 mb 0.00 in0.0 mm 0.00 in0.0 mm 0.70 in17.8 mm
05:04 PM 36.0°F2.2°C 34.6°F1.4°C 95% 6.9 mph NNE11.1 kmh NNE 13.0 mph20.9 kmh 29.77 in1008.1 mb 0.00 in0.0 mm 0.00 in0.0 mm 0.70 in17.8 mm
05:09 PM 36.0°F2.2°C 34.9°F1.6°C 96% 4.7 mph N7.6 kmh N 11.2 mph18.0 kmh 29.77 in1008.1 mb 0.00 in0.0 mm 0.00 in0.0 mm 0.70 in17.8 mm
05:14 PM 36.0°F2.2°C 34.9°F1.6°C 96% 6.1 mph NNE9.8 kmh NNE 13.4 mph21.6 kmh 29.77 in1008.1 mb 0.00 in0.0 mm 0.00 in0.0 mm 0.70 in17.8 mm
05:19 PM 36.2°F2.3°C 35.1°F1.7°C 96% 9.0 mph NNE14.5 kmh NNE 13.4 mph21.6 kmh 29.77 in1008.1 mb 0.00 in0.0 mm 0.00 in0.0 mm 0.70 in17.8 mm
05:25 PM 36.4°F2.4°C 35.3°F1.8°C 96% 9.9 mph N15.9 kmh N 12.0 mph19.3 kmh 29.77 in1008.1 mb 0.04 in1.0 mm 0.40 in10.2 mm 0.74 in18.8 mm
05:30 PM 36.6°F2.6°C 35.5°F1.9°C 96% 6.3 mph NNE10.1 kmh NNE 12.0 mph19.3 kmh 29.77 in1008.1 mb 0.04 in1.0 mm 0.00 in0.0 mm 0.74 in18.8 mm
05:36 PM 36.6°F2.6°C 35.2°F1.8°C 95% 8.7 mph NNE14.0 kmh NNE 11.6 mph18.7 kmh 29.77 in1008.1 mb 0.04 in1.0 mm 0.00 in0.0 mm 0.74 in18.8 mm
05:41 PM 36.6°F2.6°C 35.2°F1.8°C 95% 10.8 mph N17.4 kmh N 15.2 mph24.5 kmh 29.77 in1008.1 mb 0.04 in1.0 mm 0.00 in0.0 mm 0.74 in18.8 mm
05:46 PM 36.6°F2.6°C 35.2°F1.8°C 95% 7.3 mph N11.7 kmh N 16.2 mph26.1 kmh 29.77 in1008.1 mb 0.04 in1.0 mm 0.00 in0.0 mm 0.74 in18.8 mm
05:51 PM 36.6°F2.6°C 35.5°F1.9°C 96% 7.2 mph N11.6 kmh N 16.2 mph26.1 kmh 29.77 in1008.1 mb 0.04 in1.0 mm 0.00 in0.0 mm 0.74 in18.8 mm
05:58 PM 36.8°F2.7°C 35.7°F2.1°C 96% 6.5 mph NNE10.5 kmh NNE 9.8 mph15.8 kmh 29.80 in1009.1 mb 0.00 in0.0 mm 0.00 in0.0 mm 0.74 in18.8 mm
06:03 PM 36.6°F2.6°C 35.7°F2.1°C 97% 4.7 mph NNE7.6 kmh NNE 9.4 mph15.1 kmh 29.80 in1009.1 mb 0.00 in0.0 mm 0.00 in0.0 mm 0.74 in18.8 mm
06:08 PM 36.6°F2.6°C 35.7°F2.1°C 97% 6.3 mph NNE10.1 kmh NNE 9.4 mph15.1 kmh 29.80 in1009.1 mb 0.00 in0.0 mm 0.00 in0.0 mm 0.74 in18.8 mm
06:13 PM 36.6°F2.6°C 35.7°F2.1°C 97% 5.8 mph NNE9.3 kmh NNE 9.8 mph15.8 kmh 29.80 in1009.1 mb 0.00 in0.0 mm 0.00 in0.0 mm 0.74 in18.8 mm
06:18 PM 36.6°F2.6°C 35.7°F2.1°C 97% 3.9 mph NNE6.3 kmh NNE 9.8 mph15.8 kmh 29.80 in1009.1 mb 0.00 in0.0 mm 0.00 in0.0 mm 0.74 in18.8 mm
06:23 PM 36.6°F2.6°C 36.0°F2.2°C 98% 5.2 mph N8.4 kmh N 9.0 mph14.5 kmh 29.80 in1009.1 mb 0.00 in0.0 mm 0.00 in0.0 mm 0.74 in18.8 mm
06:28 PM 36.6°F2.6°C 36.0°F2.2°C 98% 3.8 mph NNE6.1 kmh NNE 9.0 mph14.5 kmh 29.77 in1008.1 mb 0.00 in0.0 mm 0.00 in0.0 mm 0.74 in18.8 mm
06:34 PM 36.6°F2.6°C 36.0°F2.2°C 98% 4.2 mph NNE6.8 kmh NNE 6.2 mph10.0 kmh 29.77 in1008.1 mb 0.00 in0.0 mm 0.00 in0.0 mm 0.74 in18.8 mm
06:39 PM 36.6°F2.6°C 36.0°F2.2°C 98% Calm Calm 5.8 mph9.3 kmh 29.77 in1008.1 mb 0.00 in0.0 mm 0.00 in0.0 mm 0.74 in18.8 mm
06:44 PM 36.6°F2.6°C 36.0°F2.2°C 98% 2.6 mph NE4.2 kmh NE 7.2 mph11.6 kmh 29.77 in1008.1 mb 0.00 in0.0 mm 0.00 in0.0 mm 0.74 in18.8 mm
06:51 PM 36.8°F2.7°C 36.2°F2.3°C 98% 2.7 mph ENE4.3 kmh ENE 7.2 mph11.6 kmh 29.77 in1008.1 mb 0.00 in0.0 mm 0.00 in0.0 mm 0.74 in18.8 mm
06:56 PM 36.8°F2.7°C 36.2°F2.3°C 98% 2.8 mph NE4.5 kmh NE 4.4 mph7.1 kmh 29.80 in1009.1 mb 0.00 in0.0 mm 0.00 in0.0 mm 0.74 in18.8 mm
07:01 PM 36.8°F2.7°C 36.2°F2.3°C 98% Calm Calm 4.4 mph7.1 kmh 29.80 in1009.1 mb 0.04 in1.0 mm 0.04 in1.0 mm 0.78 in19.8 mm
07:06 PM 37.1°F2.8°C 36.5°F2.5°C 98% Calm Calm 4.4 mph7.1 kmh 29.80 in1009.1 mb 0.04 in1.0 mm 0.00 in0.0 mm 0.78 in19.8 mm
07:12 PM 36.9°F2.7°C 36.3°F2.4°C 98% Calm Calm -- 29.83 in1010.2 mb 0.04 in1.0 mm 0.00 in0.0 mm 0.78 in19.8 mm
07:17 PM 36.8°F2.7°C 36.2°F2.3°C 98% Calm Calm -- 29.83 in1010.2 mb 0.04 in1.0 mm 0.00 in0.0 mm 0.78 in19.8 mm
07:22 PM 36.6°F2.6°C 36.0°F2.2°C 98% 4.6 mph W7.4 kmh W 5.8 mph9.3 kmh 29.83 in1010.2 mb 0.04 in1.0 mm 0.00 in0.0 mm 0.78 in19.8 mm
07:27 PM 36.6°F2.6°C 36.0°F2.2°C 98% Calm Calm 5.8 mph9.3 kmh 29.85 in1010.8 mb 0.04 in1.0 mm 0.00 in0.0 mm 0.78 in19.8 mm
07:32 PM 36.4°F2.4°C 35.8°F2.1°C 98% Calm Calm 5.0 mph8.0 kmh 29.85 in1010.8 mb 0.04 in1.0 mm 0.00 in0.0 mm 0.78 in19.8 mm
07:37 PM 36.2°F2.3°C 35.6°F2.0°C 98% Calm Calm -- 29.85 in1010.8 mb 0.04 in1.0 mm 0.00 in0.0 mm 0.78 in19.8 mm
07:42 PM 36.2°F2.3°C 35.6°F2.0°C 98% Calm Calm -- 29.85 in1010.8 mb 0.04 in1.0 mm 0.00 in0.0 mm 0.78 in19.8 mm
07:47 PM 36.0°F2.2°C 35.4°F1.9°C 98% Calm Calm -- 29.85 in1010.8 mb 0.04 in1.0 mm 0.00 in0.0 mm 0.78 in19.8 mm
07:52 PM 36.0°F2.2°C 35.4°F1.9°C 98% 3.6 mph NW5.8 kmh NW 5.0 mph8.0 kmh 29.85 in1010.8 mb 0.04 in1.0 mm 0.00 in0.0 mm 0.78 in19.8 mm
07:57 PM 36.0°F2.2°C 35.4°F1.9°C 98% 4.4 mph NNW7.1 kmh NNW 5.8 mph9.3 kmh 29.85 in1010.8 mb 0.00 in0.0 mm 0.00 in0.0 mm 0.78 in19.8 mm
08:03 PM 36.2°F2.3°C 35.6°F2.0°C 98% 5.0 mph NW8.0 kmh NW 6.8 mph10.9 kmh 29.85 in1010.8 mb 0.00 in0.0 mm 0.00 in0.0 mm 0.78 in19.8 mm
08:08 PM 36.2°F2.3°C 35.6°F2.0°C 98% 5.3 mph NNW8.5 kmh NNW 6.8 mph10.9 kmh 29.85 in1010.8 mb 0.00 in0.0 mm 0.00 in0.0 mm 0.78 in19.8 mm
08:13 PM 36.2°F2.3°C 35.6°F2.0°C 98% 5.0 mph NW8.0 kmh NW 7.6 mph12.2 kmh 29.85 in1010.8 mb 0.00 in0.0 mm 0.00 in0.0 mm 0.78 in19.8 mm
08:19 PM 36.2°F2.3°C 35.6°F2.0°C 98% 6.1 mph N9.8 kmh N 8.0 mph12.9 kmh 29.85 in1010.8 mb 0.00 in0.0 mm 0.00 in0.0 mm 0.78 in19.8 mm
08:24 PM 36.4°F2.4°C 35.3°F1.8°C 96% 6.9 mph N11.1 kmh N 9.8 mph15.8 kmh 29.85 in1010.8 mb 0.00 in0.0 mm 0.00 in0.0 mm 0.78 in19.8 mm
08:29 PM 36.6°F2.6°C 33.8°F1.0°C 90% 6.5 mph NNW10.5 kmh NNW 10.8 mph17.4 kmh 29.85 in1010.8 mb 0.00 in0.0 mm 0.00 in0.0 mm 0.78 in19.8 mm
08:35 PM 36.6°F2.6°C 32.7°F0.4°C 86% 7.1 mph N11.4 kmh N 10.8 mph17.4 kmh 29.85 in1010.8 mb 0.00 in0.0 mm 0.00 in0.0 mm 0.78 in19.8 mm
08:40 PM 36.6°F2.6°C 32.2°F0.1°C 84% 7.4 mph NNW11.9 kmh NNW 11.6 mph18.7 kmh 29.88 in1011.9 mb 0.00 in0.0 mm 0.00 in0.0 mm 0.78 in19.8 mm
08:46 PM 36.6°F2.6°C 31.3°F-0.4°C 81% 6.4 mph N10.3 kmh N 12.6 mph20.3 kmh 29.88 in1011.9 mb 0.00 in0.0 mm 0.00 in0.0 mm 0.78 in19.8 mm
08:51 PM 36.2°F2.3°C 31.2°F-0.4°C 82% 4.6 mph NNW7.4 kmh NNW 12.6 mph20.3 kmh 29.88 in1011.9 mb 0.00 in0.0 mm 0.00 in0.0 mm 0.78 in19.8 mm
08:56 PM 36.0°F2.2°C 30.7°F-0.7°C 81% 5.9 mph NNW9.5 kmh NNW 12.6 mph20.3 kmh 29.88 in1011.9 mb 0.00 in0.0 mm 0.00 in0.0 mm 0.78 in19.8 mm
09:01 PM 35.7°F2.1°C 31.0°F-0.6°C 83% 4.0 mph NW6.4 kmh NW 12.6 mph20.3 kmh 29.88 in1011.9 mb 0.00 in0.0 mm 0.00 in0.0 mm 0.78 in19.8 mm
09:06 PM 35.5°F1.9°C 30.8°F-0.7°C 83% 5.7 mph NW9.2 kmh NW 8.6 mph13.8 kmh 29.88 in1011.9 mb 0.00 in0.0 mm 0.00 in0.0 mm 0.78 in19.8 mm
09:11 PM 35.5°F1.9°C 29.9°F-1.2°C 80% 5.7 mph NNW9.2 kmh NNW 8.6 mph13.8 kmh 29.88 in1011.9 mb 0.00 in0.0 mm 0.00 in0.0 mm 0.78 in19.8 mm
09:16 PM 35.5°F1.9°C 29.0°F-1.7°C 77% 6.1 mph NNW9.8 kmh NNW 9.8 mph15.8 kmh 29.88 in1011.9 mb 0.00 in0.0 mm 0.00 in0.0 mm 0.78 in19.8 mm
09:21 PM 35.5°F1.9°C 28.7°F-1.8°C 76% 5.9 mph N9.5 kmh N 11.2 mph18.0 kmh 29.88 in1011.9 mb 0.00 in0.0 mm 0.00 in0.0 mm 0.78 in19.8 mm
09:26 PM 35.3°F1.8°C 28.5°F-1.9°C 76% 6.1 mph NW9.8 kmh NW 11.2 mph18.0 kmh 29.88 in1011.9 mb 0.00 in0.0 mm 0.00 in0.0 mm 0.78 in19.8 mm
09:31 PM 35.3°F1.8°C 28.2°F-2.1°C 75% 6.1 mph NNW9.8 kmh NNW 8.6 mph13.8 kmh 29.88 in1011.9 mb 0.00 in0.0 mm 0.00 in0.0 mm 0.78 in19.8 mm
09:38 PM 35.3°F1.8°C 27.8°F-2.3°C 74% 6.1 mph N9.8 kmh N 10.8 mph17.4 kmh 29.88 in1011.9 mb 0.00 in0.0 mm 0.00 in0.0 mm 0.78 in19.8 mm
09:43 PM 35.1°F1.7°C 27.6°F-2.4°C 74% 5.1 mph NW8.2 kmh NW 16.2 mph26.1 kmh 29.88 in1011.9 mb 0.00 in0.0 mm 0.00 in0.0 mm 0.78 in19.8 mm
09:50 PM 35.0°F1.7°C 27.9°F-2.3°C 75% 3.9 mph NNW6.3 kmh NNW 16.2 mph26.1 kmh 29.88 in1011.9 mb 0.00 in0.0 mm 0.00 in0.0 mm 0.78 in19.8 mm
09:55 PM 35.0°F1.7°C 27.6°F-2.4°C 74% 7.6 mph NNW12.2 kmh NNW 14.4 mph23.2 kmh 29.88 in1011.9 mb 0.00 in0.0 mm 0.00 in0.0 mm 0.78 in19.8 mm
10:01 PM 34.8°F1.6°C 27.7°F-2.4°C 75% 5.3 mph NW8.5 kmh NW 14.4 mph23.2 kmh 29.88 in1011.9 mb 0.00 in0.0 mm 0.00 in0.0 mm 0.78 in19.8 mm
10:06 PM 34.8°F1.6°C 28.0°F-2.2°C 76% 4.6 mph NNW7.4 kmh NNW 7.6 mph12.2 kmh 29.88 in1011.9 mb 0.00 in0.0 mm 0.00 in0.0 mm 0.78 in19.8 mm
10:11 PM 34.8°F1.6°C 27.7°F-2.4°C 75% 6.2 mph NW10.0 kmh NW 7.6 mph12.2 kmh 29.88 in1011.9 mb 0.00 in0.0 mm 0.00 in0.0 mm 0.78 in19.8 mm
10:16 PM 34.8°F1.6°C 27.7°F-2.4°C 75% 4.4 mph NNW7.1 kmh NNW 7.6 mph12.2 kmh 29.88 in1011.9 mb 0.00 in0.0 mm 0.00 in0.0 mm 0.78 in19.8 mm
10:22 PM 34.8°F1.6°C 27.7°F-2.4°C 75% 4.6 mph NW7.4 kmh NW 7.6 mph12.2 kmh 29.88 in1011.9 mb 0.00 in0.0 mm 0.00 in0.0 mm 0.78 in19.8 mm
10:27 PM 34.6°F1.4°C 27.8°F-2.3°C 76% 3.3 mph NW5.3 kmh NW 6.2 mph10.0 kmh 29.88 in1011.9 mb 0.00 in0.0 mm 0.00 in0.0 mm 0.78 in19.8 mm
10:32 PM 34.4°F1.3°C 27.6°F-2.4°C 76% 3.3 mph NW5.3 kmh NW 6.2 mph10.0 kmh 29.88 in1011.9 mb 0.00 in0.0 mm 0.00 in0.0 mm 0.78 in19.8 mm
10:37 PM 34.4°F1.3°C 27.6°F-2.4°C 76% 3.3 mph W5.3 kmh W 6.2 mph10.0 kmh 29.88 in1011.9 mb 0.00 in0.0 mm 0.00 in0.0 mm 0.78 in19.8 mm
10:42 PM 34.2°F1.2°C 27.4°F-2.6°C 76% 3.8 mph W6.1 kmh W 5.4 mph8.7 kmh 29.88 in1011.9 mb 0.00 in0.0 mm 0.00 in0.0 mm 0.78 in19.8 mm
10:47 PM 34.2°F1.2°C 27.4°F-2.6°C 76% 3.1 mph W5.0 kmh W 5.0 mph8.0 kmh 29.88 in1011.9 mb 0.00 in0.0 mm 0.00 in0.0 mm 0.78 in19.8 mm
10:52 PM 34.2°F1.2°C 27.4°F-2.6°C 76% 5.0 mph NW8.0 kmh NW 6.2 mph10.0 kmh 29.88 in1011.9 mb 0.00 in0.0 mm 0.00 in0.0 mm 0.78 in19.8 mm
10:57 PM 34.2°F1.2°C 27.4°F-2.6°C 76% 4.0 mph NNW6.4 kmh NNW 6.2 mph10.0 kmh 29.88 in1011.9 mb 0.00 in0.0 mm 0.00 in0.0 mm 0.78 in19.8 mm
11:02 PM 34.2°F1.2°C 27.7°F-2.4°C 77% 3.9 mph NNW6.3 kmh NNW 7.6 mph12.2 kmh 29.88 in1011.9 mb 0.00 in0.0 mm 0.00 in0.0 mm 0.78 in19.8 mm
11:07 PM 34.2°F1.2°C 27.7°F-2.4°C 77% 3.9 mph NW6.3 kmh NW 7.6 mph12.2 kmh 29.88 in1011.9 mb 0.00 in0.0 mm 0.00 in0.0 mm 0.78 in19.8 mm
11:13 PM 34.1°F1.2°C 27.6°F-2.4°C 77% Calm Calm 5.4 mph8.7 kmh 29.88 in1011.9 mb 0.00 in0.0 mm 0.00 in0.0 mm 0.78 in19.8 mm
11:18 PM 33.7°F0.9°C 27.2°F-2.7°C 77% 2.8 mph SSE4.5 kmh SSE 5.4 mph8.7 kmh 29.88 in1011.9 mb 0.00 in0.0 mm 0.00 in0.0 mm 0.78 in19.8 mm
11:23 PM 34.2°F1.2°C 27.7°F-2.4°C 77% 5.2 mph N8.4 kmh N 11.2 mph18.0 kmh 29.88 in1011.9 mb 0.00 in0.0 mm 0.00 in0.0 mm 0.78 in19.8 mm
11:28 PM 34.4°F1.3°C 28.2°F-2.1°C 78% 4.5 mph NW7.2 kmh NW 11.2 mph18.0 kmh 29.88 in1011.9 mb 0.00 in0.0 mm 0.00 in0.0 mm 0.78 in19.8 mm
11:33 PM 34.8°F1.6°C 28.3°F-2.1°C 77% 6.3 mph NW10.1 kmh NW 7.6 mph12.2 kmh 29.88 in1011.9 mb 0.00 in0.0 mm 0.00 in0.0 mm 0.78 in19.8 mm
11:38 PM 35.3°F1.8°C 28.5°F-1.9°C 76% 3.4 mph NNW5.5 kmh NNW 7.6 mph12.2 kmh 29.88 in1011.9 mb 0.00 in0.0 mm 0.00 in0.0 mm 0.78 in19.8 mm
11:43 PM 35.3°F1.8°C 28.5°F-1.9°C 76% 6.1 mph NW9.8 kmh NW 7.6 mph12.2 kmh 29.91 in1012.9 mb 0.00 in0.0 mm 0.00 in0.0 mm 0.78 in19.8 mm
11:48 PM 36.0°F2.2°C 28.5°F-1.9°C 74% 7.2 mph NW11.6 kmh NW 11.2 mph18.0 kmh 29.91 in1012.9 mb 0.00 in0.0 mm 0.00 in0.0 mm 0.78 in19.8 mm
11:53 PM 36.4°F2.4°C 28.6°F-1.9°C 73% 6.1 mph N9.8 kmh N 11.2 mph18.0 kmh 29.91 in1012.9 mb 0.00 in0.0 mm 0.00 in0.0 mm 0.78 in19.8 mm
11:58 PM 36.2°F2.3°C 28.7°F-1.8°C 74% 5.0 mph NW8.0 kmh NW 9.4 mph15.1 kmh 29.91 in1012.9 mb 0.00 in0.0 mm 0.00 in0.0 mm 0.78 in19.8 mm